createdAt,value
2019-01-03T00:00:48.255Z,30.4
2019-01-03T00:01:38.856Z,30.6
2019-01-03T00:02:27.581Z,30.9
2019-01-03T00:03:18.681Z,30.9
2019-01-03T00:04:07.690Z,29.8
2019-01-03T00:04:58.608Z,28.6
2019-01-03T00:05:49.123Z,27.4
2019-01-03T00:06:38.935Z,26.3
2019-01-03T00:07:29.040Z,25
2019-01-03T00:08:19.071Z,24.6
2019-01-03T00:09:08.065Z,24.6
2019-01-03T00:09:58.905Z,25.4
2019-01-03T00:10:49.235Z,26.5
2019-01-03T00:11:38.503Z,27.3
2019-01-03T00:12:29.382Z,28.1
2019-01-03T00:13:18.594Z,28.8
2019-01-03T00:14:09.393Z,29.3
2019-01-03T00:14:58.980Z,29.6
2019-01-03T00:33:15.169Z,31.7
2019-01-03T00:34:04.486Z,31.5
2019-01-03T00:34:56.114Z,31.3
2019-01-03T00:35:44.757Z,31.2
2019-01-03T00:36:34.456Z,31.1
2019-01-03T00:37:25.239Z,30.9
2019-01-03T00:38:15.836Z,30.8
2019-01-03T00:39:04.286Z,30.8
2019-01-03T00:39:55.644Z,30.7
2019-01-03T00:40:45.263Z,30.4
2019-01-03T00:41:36.023Z,29.6
2019-01-03T00:42:24.779Z,29
2019-01-03T00:43:16.208Z,28.3
2019-01-03T00:44:04.958Z,28.8
2019-01-03T00:44:55.026Z,29.4
2019-01-03T00:45:45.604Z,29.9
2019-01-03T00:46:35.890Z,30.2
2019-01-03T00:47:25.156Z,30.4
2019-01-03T00:48:16.620Z,30.7
2019-01-03T00:49:05.853Z,30.9
2019-01-03T00:49:55.397Z,31.1
2019-01-03T00:50:45.590Z,31.3
2019-01-03T00:51:35.410Z,31.5
2019-01-03T00:52:26.226Z,31.6
2019-01-03T00:53:15.908Z,31.8
2019-01-03T00:54:05.664Z,31.9
2019-01-03T00:54:57.010Z,32
2019-01-03T00:55:46.757Z,32.1
2019-01-03T00:56:37.115Z,32.3
2019-01-03T00:57:26.135Z,32.4
2019-01-03T00:58:17.209Z,32.5
2019-01-03T00:59:05.939Z,32.6
2019-01-03T00:59:56.223Z,32.7
2019-01-03T01:00:46.422Z,32.8
2019-01-03T01:01:36.714Z,32.9
2019-01-03T01:02:27.272Z,32.9
2019-01-03T01:03:15.497Z,33
2019-01-03T01:04:05.805Z,31.9
2019-01-03T01:04:56.069Z,31.7
2019-01-03T01:05:46.441Z,31.6
2019-01-03T01:06:36.937Z,31.4
2019-01-03T01:07:27.381Z,31.3
2019-01-03T01:08:16.839Z,31.1
2019-01-03T01:09:06.958Z,30.9
2019-01-03T01:09:56.957Z,30.9
2019-01-03T01:10:46.719Z,30.8
2019-01-03T01:11:36.874Z,30.7
2019-01-03T01:12:28.454Z,30.7
2019-01-03T01:13:17.719Z,30.1
2019-01-03T01:14:06.453Z,29.3
2019-01-03T01:14:57.354Z,28.7
2019-01-03T01:15:47.106Z,28.4
2019-01-03T01:16:38.658Z,29.1
2019-01-03T01:17:28.266Z,29.7
2019-01-03T01:18:16.409Z,30.1
2019-01-03T01:19:08.149Z,30.4
2019-01-03T01:19:58.115Z,30.6
2019-01-03T01:20:47.926Z,30.8
2019-01-03T01:21:37.466Z,31.1
2019-01-03T01:22:28.299Z,31.2
2019-01-03T01:23:18.648Z,31.4
2019-01-03T01:24:07.896Z,31.6
2019-01-03T01:24:57.768Z,31.7
2019-01-03T01:25:48.268Z,31.9
2019-01-03T01:26:38.923Z,31.9
2019-01-03T01:27:29.653Z,32.1
2019-01-03T01:28:18.443Z,32.3
2019-01-03T01:29:08.499Z,32.3
2019-01-03T01:29:59.659Z,32.4
2019-01-03T01:30:49.135Z,32.6
2019-01-03T01:31:39.195Z,32.6
2019-01-03T01:32:29.313Z,32.8
2019-01-03T01:33:18.535Z,32.8
2019-01-03T01:34:09.735Z,32.9
2019-01-03T01:34:59.468Z,32.9
2019-01-03T01:35:49.557Z,31.9
2019-01-03T01:36:39.573Z,31.6
2019-01-03T01:37:29.970Z,31.5
2019-01-03T01:38:18.842Z,31.4
2019-01-03T01:39:09.506Z,31.3
2019-01-03T01:39:59.452Z,31.1
2019-01-03T01:40:49.014Z,31
2019-01-03T01:41:39.951Z,30.9
2019-01-03T01:42:29.977Z,30.8
2019-01-03T01:43:19.749Z,30.7
2019-01-03T01:44:09.662Z,30.6
2019-01-03T01:44:59.635Z,30.6
2019-01-03T01:45:49.647Z,29.7
2019-01-03T01:46:39.782Z,29.1
2019-01-03T01:47:30.061Z,28.3
2019-01-03T01:48:19.282Z,28.8
2019-01-03T01:49:09.609Z,29.4
2019-01-03T01:50:00.252Z,29.9
2019-01-03T01:50:49.432Z,30.2
2019-01-03T01:51:39.712Z,30.4
2019-01-03T01:52:30.403Z,30.7
2019-01-03T01:53:19.954Z,30.9
2019-01-03T01:54:09.691Z,31.1
2019-01-03T01:55:00.413Z,30.4
2019-01-03T01:55:51.107Z,29.4
2019-01-03T01:56:40.107Z,28.1
2019-01-03T01:57:30.174Z,27.1
2019-01-03T01:58:20.303Z,25.8
2019-01-03T01:59:10.086Z,24.6
2019-01-03T02:00:00.716Z,24.3
2019-01-03T02:00:50.876Z,24.3
2019-01-03T02:01:41.268Z,25.3
2019-01-03T02:02:31.075Z,26.4
2019-01-03T02:03:21.918Z,27.3
2019-01-03T02:04:11.178Z,28.1
2019-01-03T02:05:01.801Z,28.8
2019-01-03T02:05:50.746Z,29.4
2019-01-03T02:06:39.968Z,29.8
2019-01-03T02:07:31.125Z,30.1
2019-01-03T02:08:21.011Z,30.4
2019-01-03T02:09:10.255Z,30.8
2019-01-03T02:10:00.591Z,31
2019-01-03T02:10:51.905Z,31.3
2019-01-03T02:11:41.495Z,31.4
2019-01-03T02:12:31.765Z,31.7
2019-01-03T02:13:21.053Z,31.9
2019-01-03T02:14:11.612Z,32
2019-01-03T02:15:00.842Z,32.2
2019-01-03T02:15:51.000Z,32.3
2019-01-03T02:16:41.298Z,32.4
2019-01-03T02:17:31.280Z,32.6
2019-01-03T02:18:21.185Z,32.6
2019-01-03T02:19:12.290Z,32.8
2019-01-03T02:20:02.949Z,32.9
2019-01-03T02:20:52.168Z,32.9
2019-01-03T02:21:41.684Z,33
2019-01-03T02:22:31.719Z,32.3
2019-01-03T02:23:21.739Z,31.8
2019-01-03T02:24:12.878Z,31.6
2019-01-03T02:25:02.601Z,31.5
2019-01-03T02:25:52.159Z,31.3
2019-01-03T02:26:41.707Z,31.2
2019-01-03T02:27:32.286Z,31.1
2019-01-03T02:28:22.887Z,30.9
2019-01-03T02:29:12.894Z,30.9
2019-01-03T02:30:03.304Z,30.8
2019-01-03T02:30:54.114Z,30.8
2019-01-03T02:31:43.099Z,30.6
2019-01-03T02:32:32.974Z,29.8
2019-01-03T02:33:23.726Z,29.1
2019-01-03T02:34:12.960Z,28.4
2019-01-03T02:35:03.841Z,29
2019-01-03T02:35:52.745Z,29.5
2019-01-03T02:36:43.648Z,30
2019-01-03T02:37:33.128Z,30.3
2019-01-03T02:38:23.196Z,30.6
2019-01-03T02:39:13.044Z,30.8
2019-01-03T02:40:04.118Z,30.9
2019-01-03T02:40:53.191Z,31.1
2019-01-03T02:41:42.949Z,31.4
2019-01-03T02:42:33.507Z,31.5
2019-01-03T02:43:23.856Z,31.6
2019-01-03T02:44:14.457Z,31.8
2019-01-03T02:45:04.330Z,31.9
2019-01-03T02:45:54.320Z,32
2019-01-03T02:46:43.260Z,32.1
2019-01-03T02:47:34.423Z,32.3
2019-01-03T02:48:24.183Z,32.4
2019-01-03T02:49:14.540Z,32.4
2019-01-03T02:50:04.290Z,32.6
2019-01-03T02:50:54.361Z,32.7
2019-01-03T02:51:44.381Z,32.7
2019-01-03T02:52:35.559Z,32.8
2019-01-03T02:53:24.285Z,32.9
2019-01-03T02:54:14.925Z,32.5
2019-01-03T02:55:05.729Z,31.8
2019-01-03T02:55:54.476Z,31.6
2019-01-03T02:56:44.287Z,31.4
2019-01-03T02:57:34.315Z,31.3
2019-01-03T02:58:25.538Z,31.2
2019-01-03T02:59:13.886Z,31.1
2019-01-03T03:00:05.592Z,30.9
2019-01-03T03:00:54.845Z,30.8
2019-01-03T03:01:45.222Z,30.8
2019-01-03T03:02:35.214Z,30.7
2019-01-03T03:03:25.212Z,30.6
2019-01-03T03:04:14.524Z,30.3
2019-01-03T03:05:05.946Z,29.5
2019-01-03T03:05:55.902Z,28.6
2019-01-03T03:06:45.201Z,28.6
2019-01-03T03:07:35.460Z,29.3
2019-01-03T03:08:26.075Z,29.8
2019-01-03T03:09:15.636Z,30.1
2019-01-03T03:10:06.059Z,30.3
2019-01-03T03:10:56.236Z,30.6
2019-01-03T03:11:46.119Z,30.8
2019-01-03T03:12:35.572Z,31
2019-01-03T03:13:26.173Z,31.2
2019-01-03T03:14:15.651Z,31.3
2019-01-03T03:15:06.362Z,31.5
2019-01-03T03:15:57.456Z,31.6
2019-01-03T03:16:46.982Z,31.8
2019-01-03T03:17:35.044Z,31.9
2019-01-03T03:18:26.574Z,32.1
2019-01-03T03:19:16.625Z,32.1
2019-01-03T03:20:07.178Z,32.3
2019-01-03T03:20:55.981Z,32.4
2019-01-03T03:21:46.576Z,32.4
2019-01-03T03:22:36.843Z,32.6
2019-01-03T03:23:27.133Z,32.7
2019-01-03T03:24:17.200Z,32.8
2019-01-03T03:25:07.598Z,32.8
2019-01-03T03:25:56.442Z,32.8
2019-01-03T03:26:47.318Z,31.7
2019-01-03T03:27:37.401Z,30.4
2019-01-03T03:28:27.013Z,28.8
2019-01-03T03:30:06.879Z,26.4
2019-01-03T03:30:57.278Z,25.4
2019-01-03T03:31:48.181Z,25.5
2019-01-03T03:32:37.111Z,25.9
2019-01-03T03:33:27.610Z,27.1
2019-01-03T03:34:17.030Z,28
2019-01-03T03:35:07.137Z,28.8
2019-01-03T03:35:57.427Z,29.4
2019-01-03T03:36:48.576Z,29.9
2019-01-03T03:37:38.415Z,30.3
2019-01-03T03:38:27.380Z,30.6
2019-01-03T03:39:18.765Z,30.9
2019-01-03T03:40:07.441Z,31.2
2019-01-03T03:40:58.647Z,31.4
2019-01-03T03:41:48.943Z,31.6
2019-01-03T03:42:38.777Z,31.8
2019-01-03T03:43:27.444Z,32.1
2019-01-03T03:44:17.760Z,32.2
2019-01-03T03:45:08.347Z,32.3
2019-01-03T03:45:58.944Z,32.4
2019-01-03T03:46:48.693Z,32.6
2019-01-03T03:47:38.834Z,32.7
2019-01-03T03:48:28.580Z,32.8
2019-01-03T03:49:17.682Z,32.9
2019-01-03T03:50:09.329Z,32.9
2019-01-03T03:50:58.014Z,32.2
2019-01-03T03:51:49.106Z,31.8
2019-01-03T03:52:38.416Z,31.6
2019-01-03T03:53:28.638Z,31.4
2019-01-03T03:54:18.494Z,31.3
2019-01-03T03:55:08.643Z,31.1
2019-01-03T03:55:58.842Z,31.1
2019-01-03T03:56:49.087Z,30.9
2019-01-03T03:57:38.413Z,30.8
2019-01-03T03:58:28.746Z,30.8
2019-01-03T03:59:18.752Z,30.7
2019-01-03T04:00:08.641Z,30.6
2019-01-03T04:00:59.291Z,29.8
2019-01-03T04:01:48.676Z,29.1
2019-01-03T04:02:39.315Z,28.4
2019-01-03T04:03:28.842Z,28.7
2019-01-03T04:04:19.201Z,29.3
2019-01-03T04:05:10.058Z,29.9
2019-01-03T04:05:58.729Z,30.2
2019-01-03T04:06:50.509Z,30.4
2019-01-03T04:07:38.906Z,30.7
2019-01-03T04:08:29.988Z,30.9
2019-01-03T04:09:20.090Z,31.1
2019-01-03T04:10:09.833Z,31.3
2019-01-03T04:11:00.673Z,31.4
2019-01-03T04:11:49.610Z,31.6
2019-01-03T04:12:39.455Z,31.8
2019-01-03T04:13:30.825Z,31.9
2019-01-03T04:14:20.441Z,32
2019-01-03T04:15:09.729Z,32.1
2019-01-03T04:16:00.025Z,32.3
2019-01-03T04:16:50.025Z,32.3
2019-01-03T04:17:40.898Z,32.4
2019-01-03T04:18:30.502Z,32.6
2019-01-03T04:19:20.512Z,32.7
2019-01-03T04:20:09.987Z,32.8
2019-01-03T04:21:01.460Z,32.9
2019-01-03T04:21:51.115Z,33
2019-01-03T04:22:41.100Z,32.9
2019-01-03T04:23:31.780Z,32
2019-01-03T04:24:20.744Z,31.8
2019-01-03T04:25:26.783Z,31.6
2019-01-03T04:26:01.434Z,31.4
2019-01-03T04:26:51.571Z,31.3
2019-01-03T04:27:41.251Z,31.2
2019-01-03T04:28:31.608Z,31.1
2019-01-03T04:29:21.901Z,31
2019-01-03T04:30:10.679Z,30.9
2019-01-03T04:31:01.829Z,30.8
2019-01-03T04:31:52.707Z,30.8
2019-01-03T04:32:41.324Z,30.3
2019-01-03T04:33:31.123Z,29.5
2019-01-03T04:34:21.174Z,28.9
2019-01-03T04:35:12.427Z,28.4
2019-01-03T04:36:02.134Z,29
2019-01-03T04:36:52.534Z,29.5
2019-01-03T04:37:42.363Z,30
2019-01-03T04:38:31.758Z,30.3
2019-01-03T04:39:21.560Z,30.5
2019-01-03T04:40:11.536Z,30.7
2019-01-03T04:41:01.888Z,30.9
2019-01-03T04:41:52.871Z,31.2
2019-01-03T04:42:41.529Z,31.3
2019-01-03T04:43:32.438Z,31.5
2019-01-03T04:44:21.703Z,31.6
2019-01-03T04:45:12.523Z,31.8
2019-01-03T05:02:31.239Z,29.6
2019-01-03T05:03:21.047Z,29.4
2019-01-03T05:04:11.401Z,29.3
2019-01-03T05:05:00.843Z,28.9
2019-01-03T05:05:50.650Z,28.5
2019-01-03T05:06:40.686Z,27.9
2019-01-03T05:07:31.837Z,28.4
2019-01-03T05:08:21.422Z,29
2019-01-03T05:09:11.140Z,29.4
2019-01-03T05:10:01.515Z,29.8
2019-01-03T05:10:51.040Z,30.1
2019-01-03T05:11:41.910Z,30.3
2019-01-03T05:12:32.235Z,30.6
2019-01-03T05:13:22.215Z,30.4
2019-01-03T05:14:11.493Z,29.4
2019-01-03T05:15:01.026Z,28.1
2019-01-03T05:15:52.150Z,27.2
2019-01-03T05:16:41.624Z,26.3
2019-01-03T05:17:31.416Z,25.1
2019-01-03T05:18:20.982Z,23.8
2019-01-03T05:19:11.327Z,23.5
2019-01-03T05:20:01.681Z,23.6
2019-01-03T05:20:51.447Z,24.6
2019-01-03T05:21:41.777Z,25.8
2019-01-03T05:22:31.832Z,26.6
2019-01-03T05:23:22.152Z,27.4
2019-01-03T05:24:11.971Z,28.1
2019-01-03T05:25:02.092Z,28.8
2019-01-03T05:25:51.747Z,29.2
2019-01-03T05:26:41.827Z,29.5
2019-01-03T05:27:32.550Z,29.8
2019-01-03T05:28:22.175Z,30.1
2019-01-03T05:29:13.293Z,30.4
2019-01-03T05:30:03.825Z,30.7
2019-01-03T05:30:52.660Z,30.9
2019-01-03T05:31:41.829Z,31.2
2019-01-03T05:32:33.364Z,31.4
2019-01-03T05:33:22.254Z,31.6
2019-01-03T05:34:13.395Z,31.8
2019-01-03T05:35:03.195Z,32
2019-01-03T05:35:53.556Z,32.2
2019-01-03T05:36:43.564Z,32.3
2019-01-03T05:37:33.602Z,32.4
2019-01-03T05:38:24.251Z,32.6
2019-01-03T05:39:13.976Z,32.6
2019-01-03T05:40:03.147Z,32.8
2019-01-03T05:40:53.643Z,32.9
2019-01-03T05:41:43.331Z,32.9
2019-01-03T05:42:33.683Z,33
2019-01-03T05:43:24.061Z,33.1
2019-01-03T05:44:14.601Z,32.6
2019-01-03T05:45:03.921Z,31.9
2019-01-03T05:45:53.656Z,31.8
2019-01-03T05:46:43.433Z,31.6
2019-01-03T05:47:33.865Z,31.2
2019-01-03T05:48:23.543Z,30.7
2019-01-03T05:49:13.851Z,30.3
2019-01-03T05:50:04.028Z,29.9
2019-01-03T05:50:53.705Z,29.6
2019-01-03T05:51:44.071Z,29.4
2019-01-03T05:52:33.315Z,29.3
2019-01-03T05:53:25.361Z,29.1
2019-01-03T05:54:13.335Z,28.7
2019-01-03T05:55:03.796Z,28.1
2019-01-03T05:55:54.048Z,28.1
2019-01-03T05:56:44.198Z,28.8
2019-01-03T05:57:34.131Z,29.3
2019-01-03T05:58:24.927Z,29.7
2019-01-03T05:59:13.977Z,30
2019-01-03T06:00:05.300Z,30.3
2019-01-03T06:00:54.148Z,30.6
2019-01-03T06:01:44.452Z,30.8
2019-01-03T06:02:35.290Z,31
2019-01-03T06:03:24.857Z,31.2
2019-01-03T06:04:15.719Z,31.4
2019-01-03T06:05:04.960Z,31.6
2019-01-03T06:05:54.698Z,31.7
2019-01-03T06:06:45.310Z,31.8
2019-01-03T06:07:35.052Z,31.9
2019-01-03T06:08:25.694Z,32.1
2019-01-03T06:09:14.674Z,32.2
2019-01-03T06:10:05.830Z,32.3
2019-01-03T06:10:55.077Z,32.4
2019-01-03T06:11:45.415Z,32.5
2019-01-03T06:12:35.197Z,32.6
2019-01-03T06:13:26.063Z,32.7
2019-01-03T06:14:15.820Z,32.8
2019-01-03T06:15:07.262Z,32.9
2019-01-03T06:15:55.354Z,32.9
2019-01-03T06:16:45.734Z,33
2019-01-03T06:17:36.009Z,32.5
2019-01-03T06:18:24.706Z,31.8
2019-01-03T06:19:15.284Z,31.7
2019-01-03T06:20:06.799Z,31.5
2019-01-03T06:20:56.040Z,31.1
2019-01-03T06:21:45.756Z,30.6
2019-01-03T06:22:35.801Z,30.2
2019-01-03T06:23:25.839Z,29.9
2019-01-03T06:24:16.673Z,29.7
2019-01-03T06:25:07.423Z,29.4
2019-01-03T06:25:57.394Z,29.3
2019-01-03T06:26:46.090Z,29.1
2019-01-03T06:27:36.151Z,28.7
2019-01-03T06:28:26.256Z,28.1
2019-01-03T06:29:16.256Z,28.1
2019-01-03T06:30:07.433Z,28.8
2019-01-03T06:30:56.106Z,29.3
2019-01-03T06:31:47.257Z,29.6
2019-01-03T06:32:37.308Z,29.9
2019-01-03T06:33:26.561Z,30.3
2019-01-03T06:34:16.401Z,30.5
2019-01-03T06:35:07.423Z,30.8
2019-01-03T06:35:58.149Z,30.9
2019-01-03T06:36:46.511Z,31.1
2019-01-03T06:37:35.815Z,31.3
2019-01-03T06:38:26.685Z,31.5
2019-01-03T06:39:16.192Z,31.6
2019-01-03T06:40:06.875Z,31.8
2019-01-03T06:40:56.354Z,31.9
2019-01-03T06:41:47.160Z,32
2019-01-03T06:42:36.873Z,32.1
2019-01-03T06:43:26.930Z,32.3
2019-01-03T06:44:18.420Z,32.4
2019-01-03T06:45:08.189Z,31.6
2019-01-03T06:45:58.178Z,30.5
2019-01-03T06:46:47.747Z,28.9
2019-01-03T06:47:37.750Z,27.9
2019-01-03T06:48:29.322Z,26.8
2019-01-03T06:49:17.362Z,25.5
2019-01-03T06:50:07.474Z,24.5
2019-01-03T06:50:58.282Z,24.4
2019-01-03T06:51:48.855Z,24.4
2019-01-03T06:52:37.845Z,25.6
2019-01-03T06:53:28.494Z,26.7
2019-01-03T06:54:18.276Z,27.6
2019-01-03T06:55:08.287Z,28.3
2019-01-03T06:55:58.142Z,28.9
2019-01-03T06:56:49.221Z,29.4
2019-01-03T06:57:38.689Z,29.8
2019-01-03T06:58:28.509Z,30.1
2019-01-03T06:59:18.402Z,30.5
2019-01-03T07:00:08.724Z,30.8
2019-01-03T07:00:57.726Z,31.1
2019-01-03T07:01:47.801Z,31.3
2019-01-03T07:02:39.293Z,31.5
2019-01-03T07:03:28.536Z,31.8
2019-01-03T07:04:19.166Z,31.9
2019-01-03T07:05:07.861Z,32.1
2019-01-03T07:05:59.029Z,32.3
2019-01-03T07:06:49.571Z,32.4
2019-01-03T07:07:39.086Z,32.5
2019-01-03T07:08:29.166Z,32.6
2019-01-03T07:09:19.863Z,32.8
2019-01-03T07:10:08.756Z,32.9
2019-01-03T07:10:59.076Z,33
2019-01-03T07:11:49.081Z,33.1
2019-01-03T07:12:39.174Z,33.1
2019-01-03T07:13:28.950Z,32.1
2019-01-03T07:14:21.155Z,31.9
2019-01-03T07:15:10.208Z,31.7
2019-01-03T07:15:59.412Z,31.4
2019-01-03T07:16:50.217Z,31
2019-01-03T07:17:40.435Z,30.6
2019-01-03T07:18:29.717Z,30.3
2019-01-03T07:19:19.177Z,30
2019-01-03T07:20:09.598Z,29.8
2019-01-03T07:20:59.293Z,29.6
2019-01-03T07:21:49.358Z,29.5
2019-01-03T07:22:40.355Z,29.4
2019-01-03T07:23:30.258Z,28.9
2019-01-03T07:24:20.557Z,28.6
2019-01-03T07:25:10.082Z,29.2
2019-01-03T07:26:00.483Z,29.6
2019-01-03T07:26:50.167Z,29.9
2019-01-03T07:27:40.217Z,30.2
2019-01-03T07:28:30.950Z,30.5
2019-01-03T07:29:20.093Z,30.7
2019-01-03T07:30:10.920Z,30.9
2019-01-03T07:31:00.412Z,31.1
2019-01-03T07:31:49.623Z,31.4
2019-01-03T07:32:40.829Z,31.5
2019-01-03T07:33:31.439Z,31.7
2019-01-03T07:34:20.632Z,31.8
2019-01-03T07:35:10.784Z,32
2019-01-03T07:36:00.772Z,32.1
2019-01-03T07:36:51.124Z,32.3
2019-01-03T07:37:41.161Z,32.3
2019-01-03T07:38:30.918Z,32.4
2019-01-03T07:39:21.257Z,32.6
2019-01-03T07:40:11.438Z,32.6
2019-01-03T07:41:01.392Z,32.7
2019-01-03T07:41:51.942Z,32.8
2019-01-03T07:42:40.736Z,32.9
2019-01-03T07:43:32.104Z,32.9
2019-01-03T07:44:21.884Z,32.4
2019-01-03T07:45:11.944Z,31.8
2019-01-03T07:46:01.788Z,31.6
2019-01-03T07:46:51.811Z,31.4
2019-01-03T07:47:41.601Z,31.1
2019-01-03T07:48:31.348Z,30.6
2019-01-03T07:49:21.943Z,30.3
2019-01-03T07:50:13.331Z,30
2019-01-03T07:51:02.144Z,29.8
2019-01-03T07:51:52.995Z,29.6
2019-01-03T07:52:42.213Z,29.5
2019-01-03T07:53:33.060Z,29.4
2019-01-03T07:54:22.293Z,29.2
2019-01-03T07:55:12.610Z,28.5
2019-01-03T07:56:02.118Z,28.1
2019-01-03T07:56:52.470Z,28.6
2019-01-03T07:57:41.755Z,29.2
2019-01-03T07:58:32.065Z,29.6
2019-01-03T07:59:23.173Z,29.9
2019-01-03T08:00:12.725Z,30.2
2019-01-03T08:01:02.191Z,30.4
2019-01-03T08:01:52.590Z,30.6
2019-01-03T08:02:42.891Z,30.9
2019-01-03T08:03:32.423Z,31.1
2019-01-03T08:04:23.027Z,31.3
2019-01-03T08:05:12.650Z,31.4
2019-01-03T08:06:02.915Z,31.6
2019-01-03T08:06:52.102Z,31.8
2019-01-03T08:07:43.802Z,31.9
2019-01-03T08:08:33.644Z,32
2019-01-03T08:09:22.321Z,32.1
2019-01-03T08:10:12.595Z,32.3
2019-01-03T08:11:03.224Z,32.4
2019-01-03T08:11:52.720Z,32.5
2019-01-03T08:12:43.626Z,32.6
2019-01-03T08:13:33.372Z,32.7
2019-01-03T08:14:23.180Z,32.8
2019-01-03T08:15:13.442Z,32.6
2019-01-03T08:16:03.847Z,31.4
2019-01-03T08:16:53.046Z,29.9
2019-01-03T08:17:43.747Z,28.6
2019-01-03T08:18:33.742Z,27.5
2019-01-03T08:19:23.272Z,26.3
2019-01-03T08:20:13.591Z,25.1
2019-01-03T08:21:03.689Z,24.5
2019-01-03T08:21:52.841Z,24.6
2019-01-03T08:22:44.579Z,25.1
2019-01-03T08:23:33.826Z,26.4
2019-01-03T08:24:24.388Z,27.3
2019-01-03T08:25:14.221Z,28.1
2019-01-03T08:26:03.983Z,28.8
2019-01-03T08:26:53.218Z,29.4
2019-01-03T08:27:45.667Z,29.8
2019-01-03T08:28:34.723Z,30.1
2019-01-03T08:29:23.681Z,30.5
2019-01-03T08:30:14.271Z,30.8
2019-01-03T08:31:04.573Z,31.1
2019-01-03T08:31:54.458Z,31.4
2019-01-03T08:32:45.757Z,31.6
2019-01-03T08:33:35.269Z,31.8
2019-01-03T08:34:24.576Z,32
2019-01-03T08:35:15.410Z,32.1
2019-01-03T08:36:04.351Z,32.3
2019-01-03T08:36:54.380Z,32.4
2019-01-03T08:37:44.713Z,32.6
2019-01-03T08:38:35.556Z,32.7
2019-01-03T08:39:24.850Z,32.9
2019-01-03T08:40:15.213Z,32.9
2019-01-03T08:41:05.750Z,33.1
2019-01-03T08:41:55.245Z,32.9
2019-01-03T08:42:45.592Z,32
2019-01-03T08:43:35.957Z,31.8
2019-01-03T08:44:25.139Z,31.6
2019-01-03T08:45:15.822Z,31.3
2019-01-03T08:46:05.270Z,30.9
2019-01-03T08:46:56.117Z,30.4
2019-01-03T08:47:46.196Z,30.1
2019-01-03T08:48:35.755Z,29.8
2019-01-03T08:49:24.930Z,29.6
2019-01-03T08:50:15.052Z,29.4
2019-01-03T08:51:06.942Z,29.3
2019-01-03T08:51:56.187Z,28.9
2019-01-03T08:52:46.223Z,28.3
2019-01-03T08:53:37.125Z,27.9
2019-01-03T08:54:25.935Z,28.6
2019-01-03T08:55:15.104Z,29.1
2019-01-03T08:56:06.487Z,29.6
2019-01-03T08:56:54.955Z,29.9
2019-01-03T08:57:46.624Z,30.3
2019-01-03T08:58:37.213Z,30.5
2019-01-03T08:59:26.778Z,30.8
2019-01-03T09:00:17.086Z,31
2019-01-03T09:01:06.961Z,31.2
2019-01-03T09:16:55.988Z,31.1
2019-01-03T09:17:46.053Z,30.6
2019-01-03T09:18:36.664Z,30.2
2019-01-03T09:19:26.740Z,29.9
2019-01-03T09:20:17.338Z,29.7
2019-01-03T09:21:07.847Z,29.6
2019-01-03T09:21:57.406Z,29.4
2019-01-03T09:22:47.653Z,29.2
2019-01-03T09:23:36.982Z,28.7
2019-01-03T09:24:27.027Z,28
2019-01-03T09:25:17.362Z,28.2
2019-01-03T09:26:07.408Z,28.9
2019-01-03T09:26:57.839Z,29.4
2019-01-03T09:27:47.227Z,29.8
2019-01-03T09:28:37.597Z,30.1
2019-01-03T09:29:27.919Z,30.4
2019-01-03T09:30:16.837Z,30.7
2019-01-03T09:31:07.487Z,30.9
2019-01-03T09:31:57.665Z,31.1
2019-01-03T09:32:47.858Z,31.3
2019-01-03T09:33:37.379Z,31.5
2019-01-03T09:34:27.752Z,31.7
2019-01-03T09:35:17.763Z,31.8
2019-01-03T09:36:07.405Z,32
2019-01-03T09:36:58.398Z,32.1
2019-01-03T09:37:47.995Z,32.2
2019-01-03T09:38:38.788Z,32.4
2019-01-03T09:39:28.083Z,32.4
2019-01-03T09:40:18.675Z,32.6
2019-01-03T09:41:07.926Z,32.7
2019-01-03T09:41:57.990Z,32.8
2019-01-03T09:42:48.937Z,32.9
2019-01-03T09:43:37.841Z,33.1
2019-01-03T09:44:28.137Z,32.4
2019-01-03T09:45:18.807Z,31.8
2019-01-03T09:46:08.264Z,31.7
2019-01-03T09:46:58.563Z,31.4
2019-01-03T09:47:48.931Z,31.1
2019-01-03T09:48:38.978Z,30.6
2019-01-03T09:49:28.810Z,30.1
2019-01-03T09:50:18.297Z,29.8
2019-01-03T09:51:08.868Z,29.6
2019-01-03T09:51:58.400Z,29.4
2019-01-03T09:52:49.009Z,29.2
2019-01-03T09:53:38.499Z,29.1
2019-01-03T09:54:29.120Z,28.6
2019-01-03T09:55:18.899Z,28.1
2019-01-03T09:56:09.198Z,27.9
2019-01-03T09:57:00.197Z,28.7
2019-01-03T09:57:49.049Z,29.2
2019-01-03T09:58:39.599Z,29.6
2019-01-03T09:59:29.461Z,30
2019-01-03T10:00:20.291Z,30.4
2019-01-03T10:01:09.826Z,30.7
2019-01-03T10:01:59.061Z,30.9
2019-01-03T10:02:50.765Z,30.1
2019-01-03T10:03:39.964Z,29.1
2019-01-03T10:05:19.848Z,26.8
2019-01-03T10:06:10.203Z,25.4
2019-01-03T10:07:00.193Z,24.9
2019-01-03T10:07:50.616Z,24.9
2019-01-03T10:08:40.631Z,25.6
2019-01-03T10:09:29.601Z,26.8
2019-01-03T10:10:19.343Z,27.6
2019-01-03T10:11:09.971Z,28.4
2019-01-03T10:12:00.323Z,29
2019-01-03T10:12:50.638Z,29.6
2019-01-03T10:13:41.285Z,30
2019-01-03T10:14:30.161Z,30.4
2019-01-03T10:15:19.723Z,30.7
2019-01-03T10:16:10.310Z,31
2019-01-03T10:16:59.778Z,31.3
2019-01-03T10:17:50.753Z,31.6
2019-01-03T10:18:40.711Z,31.9
2019-01-03T10:19:31.125Z,32.1
2019-01-03T10:20:20.581Z,32.3
2019-01-03T10:21:10.365Z,32.5
2019-01-03T10:22:01.000Z,32.6
2019-01-03T10:22:50.780Z,32.8
2019-01-03T10:23:41.060Z,32.9
2019-01-03T10:24:31.170Z,32.4
2019-01-03T10:25:21.237Z,31.9
2019-01-03T10:26:11.840Z,31.7
2019-01-03T10:27:01.635Z,31.4
2019-01-03T10:27:52.436Z,31.1
2019-01-03T10:28:42.295Z,30.5
2019-01-03T10:29:31.014Z,30
2019-01-03T10:30:21.817Z,29.7
2019-01-03T10:31:13.356Z,29.4
2019-01-03T10:32:01.077Z,29.2
2019-01-03T10:32:51.652Z,29.1
2019-01-03T10:33:41.174Z,28.9
2019-01-03T10:34:32.362Z,28.8
2019-01-03T10:35:22.437Z,28.1
2019-01-03T10:36:12.232Z,27.9
2019-01-03T10:37:02.254Z,28.7
2019-01-03T10:37:51.764Z,29.3
2019-01-03T10:38:42.689Z,29.6
2019-01-03T10:39:32.672Z,30
2019-01-03T10:40:22.754Z,30.3
2019-01-03T10:41:12.541Z,30.6
2019-01-03T10:42:02.059Z,30.9
2019-01-03T10:42:51.877Z,31.1
2019-01-03T10:43:43.531Z,31.4
2019-01-03T10:44:33.395Z,31.6
2019-01-03T10:45:22.044Z,31.8
2019-01-03T10:46:13.469Z,31.9
2019-01-03T10:47:02.674Z,32.1
2019-01-03T10:47:52.760Z,32.3
2019-01-03T10:48:43.024Z,32.4
2019-01-03T10:49:33.084Z,32.6
2019-01-03T10:50:23.221Z,32.8
2019-01-03T10:51:13.501Z,32.9
2019-01-03T10:52:02.453Z,33
2019-01-03T10:52:52.841Z,33.1
2019-01-03T10:53:42.705Z,32.3
2019-01-03T10:54:33.858Z,31.9
2019-01-03T10:55:23.231Z,31.8
2019-01-03T10:56:12.541Z,31.5
2019-01-03T10:57:03.657Z,31.1
2019-01-03T10:57:53.788Z,30.5
2019-01-03T10:58:42.955Z,30
2019-01-03T10:59:34.075Z,29.7
2019-01-03T11:00:23.831Z,29.4
2019-01-03T11:01:13.613Z,29.2
2019-01-03T11:02:03.971Z,29
2019-01-03T11:02:54.075Z,28.9
2019-01-03T11:03:43.823Z,28.6
2019-01-03T11:04:32.713Z,28.2
2019-01-03T11:05:23.312Z,28.8
2019-01-03T11:06:14.012Z,29.4
2019-01-03T11:07:04.594Z,29.8
2019-01-03T11:07:54.412Z,30.1
2019-01-03T11:08:43.817Z,30.4
2019-01-03T11:09:34.457Z,30.8
2019-01-03T11:10:24.820Z,31
2019-01-03T11:11:13.732Z,31.3
2019-01-03T11:12:03.804Z,31.5
2019-01-03T11:12:54.474Z,31.7
2019-01-03T11:13:44.467Z,31.9
2019-01-03T11:14:33.786Z,32.1
2019-01-03T11:15:24.125Z,32.3
2019-01-03T11:16:14.447Z,32.4
2019-01-03T11:17:04.984Z,32.6
2019-01-03T11:17:54.467Z,32.7
2019-01-03T11:18:44.540Z,32.8
2019-01-03T11:19:34.662Z,32.9
2019-01-03T11:20:24.764Z,33
2019-01-03T11:21:15.277Z,33
2019-01-03T11:22:04.786Z,32
2019-01-03T11:22:55.394Z,31.8
2019-01-03T11:23:44.873Z,31.6
2019-01-03T11:24:35.511Z,31.3
2019-01-03T11:25:25.828Z,30.8
2019-01-03T11:26:14.782Z,30.3
2019-01-03T11:27:05.651Z,29.8
2019-01-03T11:27:55.707Z,29.4
2019-01-03T11:28:45.481Z,29.2
2019-01-03T11:29:34.999Z,29
2019-01-03T11:30:25.933Z,28.8
2019-01-03T11:31:16.271Z,28.4
2019-01-03T11:32:05.166Z,28.1
2019-01-03T11:32:55.790Z,27.6
2019-01-03T11:33:45.604Z,28.3
2019-01-03T11:34:35.890Z,28.9
2019-01-03T11:35:26.798Z,29.4
2019-01-03T11:36:16.829Z,29.8
2019-01-03T11:37:05.811Z,30.2
2019-01-03T11:37:55.888Z,30.4
2019-01-03T11:38:46.529Z,30.8
2019-01-03T11:39:36.315Z,31.1
2019-01-03T11:40:27.145Z,31.3
2019-01-03T11:41:16.663Z,31.6
2019-01-03T11:42:06.415Z,31.8
2019-01-03T11:42:56.787Z,31.9
2019-01-03T11:43:47.300Z,32.1
2019-01-03T11:44:37.448Z,31.4
2019-01-03T11:45:25.810Z,30.3
2019-01-03T11:46:16.703Z,28.6
2019-01-03T11:47:06.747Z,27
2019-01-03T11:47:56.280Z,26.6
2019-01-03T11:48:46.881Z,26.6
2019-01-03T11:49:36.677Z,27.4
2019-01-03T11:50:27.262Z,28.4
2019-01-03T11:51:17.805Z,29.1
2019-01-03T11:52:07.105Z,29.6
2019-01-03T11:52:57.158Z,30.1
2019-01-03T11:53:47.870Z,30.5
2019-01-03T11:54:36.820Z,30.8
2019-01-03T11:55:27.629Z,31.1
2019-01-03T11:56:17.445Z,31.4
2019-01-03T11:57:07.174Z,31.7
2019-01-03T11:57:57.257Z,31.9
2019-01-03T11:58:47.892Z,32.1
2019-01-03T11:59:37.120Z,32.4